createdAt,value
2023-04-18T00:00:00.249Z,21.9
2023-04-18T00:05:00.534Z,20.1
2023-04-18T00:10:00.247Z,21.3
2023-04-18T00:15:00.296Z,21.8
2023-04-18T00:20:00.244Z,23.9
2023-04-18T00:25:00.303Z,24.8
2023-04-18T00:30:00.293Z,27.0
2023-04-18T00:35:01.327Z,28.2
2023-04-18T00:40:00.291Z,26.9
2023-04-18T00:45:00.303Z,29.3
2023-04-18T00:50:00.301Z,28.1
2023-04-18T00:55:00.247Z,31.3
2023-04-18T01:00:00.283Z,32.6
2023-04-18T01:05:00.300Z,27.8
2023-04-18T01:10:00.276Z,32.5
2023-04-18T01:15:00.245Z,26.9
2023-04-18T01:20:00.297Z,30.0
2023-04-18T01:25:00.297Z,29.8
2023-04-18T01:30:00.290Z,29.7
2023-04-18T01:35:00.318Z,31.5
2023-04-18T01:40:00.260Z,30.7
2023-04-18T01:45:00.272Z,32.3
2023-04-18T01:50:00.283Z,33.4
2023-04-18T01:55:00.302Z,30.9
2023-04-18T02:00:00.293Z,30.3
2023-04-18T02:05:00.277Z,28.4
2023-04-18T02:10:00.276Z,29.2
2023-04-18T02:15:00.295Z,31.9
2023-04-18T02:20:00.312Z,28.4
2023-04-18T02:25:00.281Z,33.3
2023-04-18T02:30:00.291Z,30.5
2023-04-18T02:35:00.528Z,30.1
2023-04-18T02:40:00.279Z,27.3
2023-04-18T02:45:00.277Z,28.7
2023-04-18T02:50:00.321Z,27.5
2023-04-18T02:55:00.245Z,32.2
2023-04-18T03:00:00.293Z,36.1
2023-04-18T03:05:00.394Z,29.5
2023-04-18T03:10:00.294Z,30.4
2023-04-18T03:15:00.247Z,28.2
2023-04-18T03:20:00.297Z,27.3
2023-04-18T03:25:00.286Z,32.2
2023-04-18T03:30:00.314Z,29.0
2023-04-18T03:35:00.484Z,22.7
2023-04-18T03:40:00.280Z,25.4
2023-04-18T03:45:00.282Z,24.1
2023-04-18T03:50:00.285Z,24.1
2023-04-18T03:55:00.287Z,20.9
2023-04-18T04:00:00.240Z,25.8
2023-04-18T04:05:00.326Z,24.9
2023-04-18T04:10:00.262Z,23.9
2023-04-18T04:15:00.300Z,23.7
2023-04-18T04:20:00.300Z,24.4
2023-04-18T04:25:00.287Z,23.3
2023-04-18T04:30:00.270Z,20.4
2023-04-18T04:35:00.280Z,23.1
2023-04-18T04:40:00.297Z,24.4
2023-04-18T04:45:00.376Z,26.7
2023-04-18T04:50:00.270Z,20.1
2023-04-18T04:55:00.307Z,22.0
2023-04-18T05:00:00.257Z,21.5
2023-04-18T05:05:00.274Z,24.0
2023-04-18T05:10:00.284Z,18.1
2023-04-18T05:15:00.297Z,20.4
2023-04-18T05:20:00.310Z,21.4
2023-04-18T05:25:00.277Z,23.2
2023-04-18T05:30:00.324Z,17.9
2023-04-18T05:35:00.320Z,18.1
2023-04-18T05:40:01.134Z,16.3
2023-04-18T05:45:00.295Z,21.2
2023-04-18T05:50:00.288Z,16.2
2023-04-18T05:55:00.299Z,18.3
2023-04-18T06:00:00.288Z,21.6
2023-04-18T06:05:00.497Z,15.0
2023-04-18T06:10:00.249Z,15.6
2023-04-18T06:15:00.302Z,16.0
2023-04-18T06:20:00.280Z,15.9
2023-04-18T06:25:00.291Z,15.2
2023-04-18T06:30:00.306Z,13.1
2023-04-18T06:35:00.289Z,14.6
2023-04-18T06:40:00.306Z,13.4
2023-04-18T06:45:00.299Z,15.6
2023-04-18T06:50:00.257Z,11.2
2023-04-18T06:55:00.307Z,14.4
2023-04-18T07:00:00.288Z,11.4
2023-04-18T07:05:00.293Z,16.2
2023-04-18T07:10:00.307Z,10.0
2023-04-18T07:15:00.299Z,12.9
2023-04-18T07:20:00.276Z,14.4
2023-04-18T07:25:00.293Z,10.8
2023-04-18T07:30:00.302Z,12.6
2023-04-18T07:35:00.578Z,17.1
2023-04-18T07:40:00.255Z,12.6
2023-04-18T07:45:00.322Z,13.4
2023-04-18T07:50:00.250Z,12.5
2023-04-18T07:55:00.308Z,11.1
2023-04-18T08:00:00.305Z,10.5
2023-04-18T08:05:00.505Z,12.8
2023-04-18T08:10:00.279Z,12.6
2023-04-18T08:15:00.309Z,11.9
2023-04-18T08:20:00.314Z,11.9
2023-04-18T08:25:04.832Z,12.1
2023-04-18T08:30:00.252Z,11.3
2023-04-18T08:35:00.319Z,8.8
2023-04-18T08:40:00.240Z,10.2
2023-04-18T08:45:00.333Z,10.3
2023-04-18T08:50:00.289Z,9.9
2023-04-18T08:55:00.306Z,10.9
2023-04-18T09:00:00.249Z,12.2
2023-04-18T09:05:00.282Z,10.3
2023-04-18T09:10:00.301Z,14.9
2023-04-18T09:15:00.301Z,9.9
2023-04-18T09:20:00.249Z,13.0
2023-04-18T09:25:00.310Z,10.3
2023-04-18T09:30:00.278Z,17.0
2023-04-18T09:35:01.976Z,10.1
2023-04-18T09:40:00.290Z,13.8
2023-04-18T09:45:00.332Z,13.6
2023-04-18T09:50:00.263Z,10.5
2023-04-18T09:55:00.339Z,9.6
2023-04-18T10:00:00.297Z,10.9
2023-04-18T10:05:00.680Z,10.0
2023-04-18T10:10:00.244Z,15.0
2023-04-18T10:15:00.324Z,7.2
2023-04-18T10:20:00.305Z,8.3
2023-04-18T10:25:01.428Z,8.8
2023-04-18T10:30:00.294Z,6.7
2023-04-18T10:35:00.328Z,6.3
2023-04-18T10:40:00.341Z,7.5
2023-04-18T10:45:00.259Z,7.4
2023-04-18T10:50:00.321Z,7.3
2023-04-18T10:55:00.265Z,9.0
2023-04-18T11:00:00.288Z,7.9
2023-04-18T11:05:00.285Z,9.8
2023-04-18T11:10:00.300Z,7.8
2023-04-18T11:15:00.297Z,10.3
2023-04-18T11:20:00.300Z,11.9
2023-04-18T11:25:00.398Z,9.9
2023-04-18T11:30:00.298Z,12.4
2023-04-18T11:35:00.277Z,10.4
2023-04-18T11:40:00.338Z,9.7
2023-04-18T11:45:00.260Z,12.2
2023-04-18T11:50:00.294Z,8.9
2023-04-18T11:55:00.294Z,8.3
2023-04-18T12:00:00.305Z,9.3
2023-04-18T12:05:00.668Z,8.4
2023-04-18T12:10:00.303Z,7.5
2023-04-18T12:15:00.302Z,9.6
2023-04-18T12:20:00.291Z,7.4
2023-04-18T12:25:00.264Z,7.6
2023-04-18T12:30:00.299Z,9.2
2023-04-18T12:35:00.290Z,13.7
2023-04-18T12:40:00.284Z,6.2
2023-04-18T12:45:00.275Z,11.5
2023-04-18T12:50:00.320Z,7.6
2023-04-18T12:55:00.278Z,6.3
2023-04-18T13:00:00.322Z,10.3
2023-04-18T13:05:00.295Z,7.7
2023-04-18T13:10:00.286Z,7.8
2023-04-18T13:15:00.315Z,7.0
2023-04-18T13:20:00.284Z,8.8
2023-04-18T13:25:00.303Z,5.5
2023-04-18T13:30:00.297Z,5.5
2023-04-18T13:35:00.295Z,8.1
2023-04-18T13:40:00.299Z,6.6
2023-04-18T13:45:00.283Z,7.9
2023-04-18T13:50:00.364Z,4.8
2023-04-18T13:55:00.296Z,5.1
2023-04-18T14:00:00.289Z,7.2
2023-04-18T14:05:00.531Z,7.4
2023-04-18T14:10:00.303Z,7.9
2023-04-18T14:15:00.299Z,7.5
2023-04-18T14:20:00.338Z,8.3
2023-04-18T14:25:00.257Z,11.3
2023-04-18T14:30:00.321Z,12.2
2023-04-18T14:35:00.274Z,8.1
2023-04-18T14:40:00.315Z,10.8
2023-04-18T14:45:00.305Z,9.5
2023-04-18T14:50:00.299Z,8.1
2023-04-18T14:55:00.245Z,9.9
2023-04-18T15:00:00.338Z,8.6
2023-04-18T15:05:00.387Z,10.7
2023-04-18T15:10:00.276Z,8.2
2023-04-18T15:15:00.246Z,9.6
2023-04-18T15:20:00.325Z,10.3
2023-04-18T15:25:00.247Z,8.0
2023-04-18T15:30:00.307Z,8.2
2023-04-18T15:35:01.344Z,9.0
2023-04-18T15:40:00.306Z,9.4
2023-04-18T15:45:00.277Z,10.7
2023-04-18T15:50:00.335Z,10.1
2023-04-18T15:55:00.314Z,8.0
2023-04-18T16:00:00.329Z,8.9
2023-04-18T16:05:00.257Z,8.7
2023-04-18T16:10:00.305Z,8.3
2023-04-18T16:15:00.275Z,10.5
2023-04-18T16:20:00.339Z,10.4
2023-04-18T16:25:00.341Z,14.4
2023-04-18T16:30:00.335Z,6.6
2023-04-18T16:35:00.274Z,9.2
2023-04-18T16:40:00.367Z,8.4
2023-04-18T16:45:00.246Z,10.9
2023-04-18T16:50:00.557Z,8.3
2023-04-18T16:55:00.283Z,9.6
2023-04-18T17:00:00.296Z,10.5
2023-04-18T17:05:00.363Z,9.6
2023-04-18T17:10:00.324Z,8.2
2023-04-18T17:15:00.348Z,9.7
2023-04-18T17:20:00.309Z,8.4
2023-04-18T17:25:00.256Z,6.0
2023-04-18T17:30:00.312Z,6.5
2023-04-18T17:35:00.277Z,6.6
2023-04-18T17:40:00.298Z,5.6
2023-04-18T17:45:00.259Z,10.0
2023-04-18T17:50:00.327Z,6.9
2023-04-18T17:55:00.320Z,9.1
2023-04-18T18:00:00.305Z,9.5
2023-04-18T18:05:00.312Z,9.6
2023-04-18T18:10:00.306Z,9.9
2023-04-18T18:15:00.271Z,9.8
2023-04-18T18:20:00.306Z,6.4
2023-04-18T18:25:00.259Z,10.4
2023-04-18T18:30:00.347Z,10.4
2023-04-18T18:35:00.306Z,10.5
2023-04-18T18:40:00.317Z,7.0
2023-04-18T18:45:00.299Z,11.7
2023-04-18T18:50:00.282Z,7.5
2023-04-18T18:55:00.304Z,11.2
2023-04-18T19:00:00.293Z,11.6
2023-04-18T19:05:00.621Z,9.6
2023-04-18T19:10:00.296Z,12.2
2023-04-18T19:15:00.332Z,8.2
2023-04-18T19:20:00.309Z,9.0
2023-04-18T19:25:00.252Z,8.8
2023-04-18T19:30:00.291Z,12.5
2023-04-18T19:35:00.319Z,8.7
2023-04-18T19:40:00.296Z,7.6
2023-04-18T19:45:00.292Z,10.7
2023-04-18T19:50:00.295Z,13.0
2023-04-18T19:55:00.246Z,15.8
2023-04-18T20:00:00.308Z,10.3
2023-04-18T20:05:00.503Z,11.5
2023-04-18T20:10:00.305Z,8.7
2023-04-18T20:15:00.247Z,8.7
2023-04-18T20:20:00.309Z,12.5
2023-04-18T20:25:00.298Z,13.7
2023-04-18T20:30:00.306Z,9.5
2023-04-18T20:35:00.282Z,10.8
2023-04-18T20:40:00.320Z,10.0
2023-04-18T20:45:00.266Z,8.7
2023-04-18T20:50:00.325Z,12.3
2023-04-18T20:55:00.316Z,12.4
2023-04-18T21:00:00.384Z,7.9
2023-04-18T21:05:00.306Z,11.9
2023-04-18T21:10:00.384Z,9.2
2023-04-18T21:15:00.400Z,12.5
2023-04-18T21:20:00.319Z,12.8
2023-04-18T21:25:00.290Z,11.3
2023-04-18T21:30:01.794Z,13.7
2023-04-18T21:35:00.287Z,11.8
2023-04-18T21:40:00.372Z,10.6
2023-04-18T21:45:00.620Z,11.1
2023-04-18T21:50:00.336Z,11.6
2023-04-18T21:55:00.310Z,11.9
2023-04-18T22:00:00.376Z,15.0
2023-04-18T22:05:00.238Z,13.4
2023-04-18T22:10:00.341Z,10.3
2023-04-18T22:15:00.343Z,13.2
2023-04-18T22:20:00.368Z,9.4
2023-04-18T22:25:00.255Z,9.4
2023-04-18T22:30:00.275Z,11.2
2023-04-18T22:35:00.288Z,10.4
2023-04-18T22:40:00.295Z,11.3
2023-04-18T22:45:00.271Z,13.5
2023-04-18T22:50:00.295Z,10.0
2023-04-18T22:55:00.297Z,9.3
2023-04-18T23:00:00.244Z,11.5
2023-04-18T23:05:00.275Z,10.7
2023-04-18T23:10:00.394Z,10.0
2023-04-18T23:15:00.293Z,10.2
2023-04-18T23:20:00.286Z,8.7
2023-04-18T23:25:00.288Z,9.7
2023-04-18T23:30:00.299Z,8.7
2023-04-18T23:35:00.272Z,7.9
2023-04-18T23:40:00.303Z,8.1
2023-04-18T23:45:00.298Z,7.1
2023-04-18T23:50:00.300Z,9.8
2023-04-18T23:55:00.304Z,9.3
